createdAt,value
2023-02-25T00:01:38.878Z,5.87
2023-02-25T00:04:06.891Z,6.17
2023-02-25T00:06:33.672Z,6.27
2023-02-25T00:09:00.999Z,6.10
2023-02-25T00:11:28.268Z,4.63
2023-02-25T00:13:55.420Z,5.17
2023-02-25T00:16:24.449Z,5.60
2023-02-25T00:18:58.917Z,5.93
2023-02-25T00:21:26.982Z,5.40
2023-02-25T00:23:53.929Z,6.67
2023-02-25T00:26:22.286Z,4.87
2023-02-25T00:28:49.961Z,4.33
2023-02-25T00:31:21.344Z,5.47
2023-02-25T00:33:48.849Z,4.50
2023-02-25T00:36:23.825Z,5.87
2023-02-25T00:38:57.156Z,4.70
2023-02-25T00:41:28.566Z,5.30
2023-02-25T00:44:01.563Z,5.03
2023-02-25T00:46:32.688Z,5.50
2023-02-25T00:49:00.434Z,5.53
2023-02-25T00:51:32.808Z,5.13
2023-02-25T00:53:59.889Z,5.03
2023-02-25T00:56:27.666Z,5.20
2023-02-25T00:58:54.544Z,5.30
2023-02-25T01:01:29.431Z,4.57
2023-02-25T01:03:58.430Z,4.83
2023-02-25T01:06:29.207Z,5.00
2023-02-25T01:08:58.078Z,5.10
2023-02-25T01:11:29.758Z,5.10
2023-02-25T01:14:04.561Z,4.93
2023-02-25T01:16:34.235Z,5.17
2023-02-25T01:19:12.760Z,5.67
2023-02-25T01:21:43.935Z,5.63
2023-02-25T01:24:15.300Z,5.93
2023-02-25T01:26:45.199Z,6.40
2023-02-25T01:29:22.771Z,6.10
2023-02-25T01:31:56.969Z,7.40
2023-02-25T01:34:24.724Z,6.47
2023-02-25T01:36:52.138Z,6.07
2023-02-25T01:39:20.627Z,6.03
2023-02-25T01:41:50.942Z,5.87
2023-02-25T01:44:32.006Z,6.00
2023-02-25T01:46:59.114Z,5.53
2023-02-25T01:49:38.663Z,7.30
2023-02-25T01:52:13.713Z,6.33
2023-02-25T01:54:45.091Z,7.13
2023-02-25T01:57:17.277Z,6.67
2023-02-25T01:59:45.912Z,7.73
2023-02-25T02:02:18.554Z,6.40
2023-02-25T02:04:50.888Z,8.07
2023-02-25T02:07:20.492Z,6.27
2023-02-25T02:09:56.633Z,6.23
2023-02-25T02:12:33.496Z,6.57
2023-02-25T02:15:04.181Z,7.30
2023-02-25T02:17:44.000Z,6.27
2023-02-25T02:20:27.479Z,7.47
2023-02-25T02:23:35.361Z,7.43
2023-02-25T02:26:07.618Z,6.83
2023-02-25T02:29:11.512Z,7.47
2023-02-25T02:32:15.416Z,7.73
2023-02-25T02:35:20.940Z,7.43
2023-02-25T02:37:59.479Z,7.77
2023-02-25T02:40:32.113Z,7.13
2023-02-25T02:43:21.624Z,8.07
2023-02-25T02:46:05.738Z,7.00
2023-02-25T02:48:56.413Z,7.30
2023-02-25T02:51:38.027Z,8.17
2023-02-25T02:54:10.521Z,7.97
2023-02-25T02:56:42.479Z,6.37
2023-02-25T02:59:27.114Z,6.90
2023-02-25T03:02:08.774Z,7.10
2023-02-25T03:04:40.512Z,6.80
2023-02-25T03:07:12.493Z,7.30
2023-02-25T03:09:53.297Z,7.60
2023-02-25T03:12:20.509Z,8.23
2023-02-25T03:14:47.431Z,7.67
2023-02-25T03:17:32.019Z,7.47
2023-02-25T03:20:08.270Z,8.30
2023-02-25T03:22:42.805Z,6.37
2023-02-25T03:25:35.879Z,7.73
2023-02-25T03:28:31.824Z,7.30
2023-02-25T03:31:09.021Z,7.53
2023-02-25T03:33:59.363Z,7.53
2023-02-25T03:36:35.943Z,7.53
2023-02-25T03:39:21.884Z,8.90
2023-02-25T03:41:57.702Z,8.13
2023-02-25T03:44:34.731Z,7.90
2023-02-25T03:47:05.910Z,7.83
2023-02-25T03:49:55.799Z,7.77
2023-02-25T03:52:26.939Z,8.13
2023-02-25T03:54:58.224Z,8.87
2023-02-25T03:57:36.644Z,8.57
2023-02-25T04:00:15.617Z,8.50
2023-02-25T04:02:43.195Z,8.30
2023-02-25T04:05:10.492Z,8.00
2023-02-25T04:07:37.626Z,7.87
2023-02-25T04:10:07.881Z,8.33
2023-02-25T04:12:34.924Z,8.40
2023-02-25T04:15:02.018Z,7.87
2023-02-25T04:17:28.889Z,8.53
2023-02-25T04:19:55.620Z,6.30
2023-02-25T04:22:22.569Z,7.10
2023-02-25T04:24:49.304Z,7.83
2023-02-25T04:27:16.354Z,8.93
2023-02-25T04:29:44.082Z,9.50
2023-02-25T04:32:12.275Z,9.47
2023-02-25T04:34:39.090Z,8.40
2023-02-25T04:37:06.679Z,9.63
2023-02-25T04:39:33.487Z,8.80
2023-02-25T04:42:00.643Z,9.00
2023-02-25T04:44:27.505Z,8.67
2023-02-25T04:46:54.699Z,10.90
2023-02-25T04:49:22.748Z,9.70
2023-02-25T04:51:51.474Z,9.13
2023-02-25T04:54:21.974Z,10.07
2023-02-25T04:56:49.331Z,4.40
2023-02-25T04:59:16.852Z,9.90
2023-02-25T05:01:43.722Z,10.17
2023-02-25T05:04:10.795Z,8.77
2023-02-25T05:06:39.101Z,9.53
2023-02-25T05:09:05.832Z,8.27
2023-02-25T05:11:32.634Z,9.00
2023-02-25T05:13:59.452Z,9.87
2023-02-25T05:16:26.780Z,8.83
2023-02-25T05:18:54.561Z,9.37
2023-02-25T05:21:25.210Z,9.40
2023-02-25T05:23:54.130Z,10.03
2023-02-25T05:26:25.126Z,10.37
2023-02-25T05:28:55.082Z,9.87
2023-02-25T05:31:24.631Z,7.90
2023-02-25T05:33:52.067Z,9.53
2023-02-25T05:36:19.080Z,6.90
2023-02-25T05:38:46.479Z,9.27
2023-02-25T05:41:14.182Z,9.07
2023-02-25T05:43:42.300Z,9.10
2023-02-25T05:46:11.885Z,8.93
2023-02-25T05:48:41.587Z,9.13
2023-02-25T05:51:13.506Z,8.97
2023-02-25T05:53:40.684Z,9.50
2023-02-25T05:56:11.236Z,10.17
2023-02-25T05:58:38.142Z,8.80
2023-02-25T06:01:15.429Z,7.77
2023-02-25T06:03:47.479Z,4.87
2023-02-25T06:06:17.893Z,8.30
2023-02-25T06:08:44.878Z,8.47
2023-02-25T06:11:17.960Z,7.30
2023-02-25T06:13:44.767Z,8.17
2023-02-25T06:16:11.535Z,7.70
2023-02-25T06:18:38.294Z,7.93
2023-02-25T06:21:07.989Z,8.07
2023-02-25T06:23:37.741Z,7.47
2023-02-25T06:26:06.379Z,7.20
2023-02-25T06:28:34.208Z,6.73
2023-02-25T06:31:01.500Z,6.03
2023-02-25T06:33:31.560Z,7.27
2023-02-25T06:35:58.968Z,7.53
2023-02-25T06:38:25.896Z,8.37
2023-02-25T06:40:52.681Z,8.93
2023-02-25T06:43:19.584Z,7.47
2023-02-25T06:45:46.377Z,8.50
2023-02-25T06:48:13.148Z,9.07
2023-02-25T06:50:41.692Z,9.77
2023-02-25T06:53:09.497Z,9.83
2023-02-25T06:55:39.618Z,9.97
2023-02-25T06:58:06.701Z,9.30
2023-02-25T07:00:33.614Z,9.90
2023-02-25T07:03:02.993Z,9.93
2023-02-25T07:05:29.957Z,9.50
2023-02-25T07:07:56.850Z,9.50
2023-02-25T07:10:23.798Z,9.40
2023-02-25T07:12:52.831Z,10.23
2023-02-25T07:15:21.380Z,9.03
2023-02-25T07:17:48.806Z,9.47
2023-02-25T07:20:16.146Z,9.30
2023-02-25T07:22:43.169Z,9.27
2023-02-25T07:25:14.049Z,8.83
2023-02-25T07:27:44.520Z,9.23
2023-02-25T07:30:15.406Z,8.50
2023-02-25T07:32:42.889Z,9.90
2023-02-25T07:35:10.526Z,9.10
2023-02-25T07:37:37.870Z,8.87
2023-02-25T07:40:16.739Z,9.63
2023-02-25T07:42:43.856Z,8.30
2023-02-25T07:45:11.759Z,8.40
2023-02-25T07:47:39.043Z,8.87
2023-02-25T07:50:10.863Z,8.90
2023-02-25T07:52:39.888Z,8.00
2023-02-25T07:55:08.031Z,8.63
2023-02-25T07:57:35.730Z,8.40
2023-02-25T08:00:04.955Z,9.30
2023-02-25T08:02:31.954Z,9.20
2023-02-25T08:05:00.414Z,9.60
2023-02-25T08:07:28.664Z,9.50
2023-02-25T08:09:55.661Z,7.60
2023-02-25T08:12:23.055Z,9.07
2023-02-25T08:14:49.922Z,9.97
2023-02-25T08:17:17.300Z,10.63
2023-02-25T08:19:44.215Z,8.37
2023-02-25T08:22:11.877Z,9.30
2023-02-25T08:24:41.766Z,9.33
2023-02-25T08:27:08.890Z,9.73
2023-02-25T08:29:37.489Z,9.00
2023-02-25T08:32:07.265Z,7.90
2023-02-25T08:34:35.031Z,8.40
2023-02-25T08:37:02.054Z,9.57
2023-02-25T08:39:29.242Z,10.17
2023-02-25T08:41:56.016Z,10.50
2023-02-25T08:44:22.840Z,8.43
2023-02-25T08:46:49.689Z,11.67
2023-02-25T08:49:16.525Z,8.10
2023-02-25T08:51:43.322Z,9.87
2023-02-25T08:54:13.986Z,8.63
2023-02-25T08:56:47.384Z,8.43
2023-02-25T08:59:16.257Z,8.80
2023-02-25T09:01:47.001Z,7.57
2023-02-25T09:04:18.356Z,8.00
2023-02-25T09:06:48.897Z,10.47
2023-02-25T09:09:18.244Z,6.10
2023-02-25T09:11:47.419Z,7.97
2023-02-25T09:14:15.168Z,4.10
2023-02-25T09:16:42.202Z,3.97
2023-02-25T09:19:10.814Z,1.37
2023-02-25T09:21:40.293Z,1.37
2023-02-25T09:24:08.954Z,1.23
2023-02-25T09:26:36.280Z,1.00
2023-02-25T09:29:05.853Z,1.20
2023-02-25T09:31:34.608Z,0.93
2023-02-25T09:34:04.627Z,0.77
2023-02-25T09:36:31.802Z,0.63
2023-02-25T09:38:59.322Z,0.70
2023-02-25T09:41:41.184Z,0.67
2023-02-25T09:44:22.418Z,0.90
2023-02-25T09:46:58.223Z,1.03
2023-02-25T09:49:54.103Z,0.90
2023-02-25T09:52:29.532Z,0.80
2023-02-25T09:55:06.350Z,1.00
2023-02-25T09:57:41.386Z,1.30
2023-02-25T10:00:18.863Z,1.03
2023-02-25T10:03:40.079Z,1.50
2023-02-25T10:06:20.394Z,1.33
2023-02-25T10:08:58.815Z,2.87
2023-02-25T10:12:01.990Z,1.73
2023-02-25T10:14:44.930Z,2.97
2023-02-25T10:17:46.517Z,2.50
2023-02-25T10:20:53.210Z,2.40
2023-02-25T10:23:47.982Z,2.10
2023-02-25T10:26:27.358Z,1.60
2023-02-25T10:29:06.394Z,2.30
2023-02-25T10:31:34.388Z,1.80
2023-02-25T10:34:27.581Z,2.63
2023-02-25T10:36:58.942Z,2.23
2023-02-25T10:39:28.814Z,2.30
2023-02-25T10:41:55.856Z,2.27
2023-02-25T10:44:22.670Z,2.40
2023-02-25T10:47:05.068Z,2.13
2023-02-25T10:49:38.167Z,1.87
2023-02-25T10:52:18.698Z,2.70
2023-02-25T10:54:54.818Z,2.00
2023-02-25T10:57:40.175Z,2.67
2023-02-25T11:00:31.092Z,2.50
2023-02-25T11:03:01.655Z,1.90
2023-02-25T11:05:43.564Z,1.80
2023-02-25T11:08:26.499Z,1.93
2023-02-25T11:11:06.483Z,1.87
2023-02-25T11:13:36.831Z,3.27
2023-02-25T11:16:10.142Z,2.30
2023-02-25T11:18:38.169Z,1.90
2023-02-25T11:21:14.361Z,2.13
2023-02-25T11:23:46.518Z,3.20
2023-02-25T11:26:39.199Z,2.13
2023-02-25T11:29:25.868Z,2.07
2023-02-25T11:32:00.047Z,3.10
2023-02-25T11:34:32.054Z,2.10
2023-02-25T11:37:23.857Z,1.50
2023-02-25T11:39:57.222Z,2.30
2023-02-25T11:42:27.282Z,1.50
2023-02-25T11:45:05.595Z,1.80
2023-02-25T11:47:37.979Z,1.80
2023-02-25T11:50:29.452Z,1.73
2023-02-25T11:53:31.492Z,1.27
2023-02-25T11:56:23.718Z,1.30
2023-02-25T11:59:31.382Z,1.23
2023-02-25T12:02:44.924Z,1.57
2023-02-25T12:05:43.576Z,1.90
2023-02-25T12:08:50.358Z,1.80
2023-02-25T12:11:38.288Z,1.97
2023-02-25T12:15:08.361Z,1.70
2023-02-25T12:17:59.158Z,1.40
2023-02-25T12:20:43.470Z,1.90
2023-02-25T12:23:51.622Z,1.40
2023-02-25T12:26:50.422Z,1.67
2023-02-25T12:30:08.580Z,2.60
2023-02-25T12:33:25.817Z,2.10
2023-02-25T12:36:16.783Z,1.67
2023-02-25T12:39:13.156Z,1.30
2023-02-25T12:42:08.945Z,1.70
2023-02-25T12:45:03.617Z,1.47
2023-02-25T12:48:13.259Z,1.57
2023-02-25T12:51:23.580Z,1.67
2023-02-25T12:54:25.873Z,1.47
2023-02-25T12:57:02.230Z,1.27
2023-02-25T12:59:51.859Z,1.77
2023-02-25T13:02:34.261Z,1.70
2023-02-25T13:05:32.501Z,2.03
2023-02-25T13:08:53.399Z,1.90
2023-02-25T13:12:10.230Z,1.97
2023-02-25T13:14:40.354Z,1.70
2023-02-25T13:17:35.564Z,1.47
2023-02-25T13:20:55.134Z,1.57
2023-02-25T13:23:56.466Z,1.33
2023-02-25T13:26:54.160Z,1.40
2023-02-25T13:29:56.006Z,1.90
2023-02-25T13:32:50.340Z,1.43
2023-02-25T13:35:36.653Z,2.03
2023-02-25T13:38:19.598Z,1.70
2023-02-25T13:41:18.698Z,1.30
2023-02-25T13:44:19.530Z,1.20
2023-02-25T13:47:32.252Z,1.20
2023-02-25T13:50:01.734Z,2.47
2023-02-25T13:52:35.659Z,1.50
2023-02-25T13:55:16.247Z,1.47
2023-02-25T13:58:05.812Z,1.20
2023-02-25T14:01:12.766Z,1.07
2023-02-25T14:04:22.541Z,1.83
2023-02-25T14:07:50.546Z,1.17
2023-02-25T14:10:46.835Z,1.30
2023-02-25T14:13:27.496Z,1.50
2023-02-25T14:16:34.718Z,0.87
2023-02-25T14:19:56.593Z,1.73
2023-02-25T14:22:53.032Z,1.73
2023-02-25T14:26:14.296Z,0.60
2023-02-25T14:28:55.878Z,1.30
2023-02-25T14:31:38.143Z,1.57
2023-02-25T14:35:00.782Z,1.60
2023-02-25T14:37:36.300Z,1.30
2023-02-25T14:40:31.760Z,1.23
2023-02-25T14:43:26.949Z,1.30
2023-02-25T14:46:31.584Z,1.37
2023-02-25T14:49:26.843Z,2.13
2023-02-25T14:52:19.537Z,1.63
2023-02-25T14:55:17.236Z,1.77
2023-02-25T14:58:24.548Z,2.00
2023-02-25T15:01:17.218Z,1.70
2023-02-25T15:04:25.150Z,1.00
2023-02-25T15:07:47.078Z,1.20
2023-02-25T15:10:32.315Z,1.07
2023-02-25T15:13:27.444Z,1.93
2023-02-25T15:16:18.299Z,1.23
2023-02-25T15:19:17.323Z,1.27
2023-02-25T15:21:48.287Z,0.87
2023-02-25T15:24:38.304Z,0.80
2023-02-25T15:27:35.357Z,1.30
2023-02-25T15:30:23.194Z,1.33
2023-02-25T15:33:01.963Z,1.00
2023-02-25T15:35:34.653Z,1.20
2023-02-25T15:38:02.239Z,1.10
2023-02-25T15:40:34.994Z,1.30
2023-02-25T15:43:10.614Z,1.90
2023-02-25T15:45:39.486Z,1.50
2023-02-25T15:48:17.464Z,1.40
2023-02-25T15:50:46.037Z,1.70
2023-02-25T15:53:21.746Z,1.43
2023-02-25T15:56:11.171Z,2.80
2023-02-25T15:58:54.898Z,0.90
2023-02-25T16:01:29.397Z,0.70
2023-02-25T16:03:56.513Z,1.50
2023-02-25T16:06:40.336Z,0.90
2023-02-25T16:09:12.125Z,0.93
2023-02-25T16:11:53.669Z,0.67
2023-02-25T16:14:32.240Z,0.73
2023-02-25T16:17:22.456Z,1.03
2023-02-25T16:20:00.142Z,1.00
2023-02-25T16:22:29.549Z,1.23
2023-02-25T16:24:59.368Z,0.87
2023-02-25T16:28:07.675Z,1.20
2023-02-25T16:30:48.625Z,0.70
2023-02-25T16:33:41.100Z,1.30
2023-02-25T16:37:04.725Z,1.40
2023-02-25T16:39:32.531Z,1.10
2023-02-25T16:42:12.386Z,1.10
2023-02-25T16:44:41.800Z,1.33
2023-02-25T16:47:29.398Z,1.07
2023-02-25T16:49:59.674Z,1.40
2023-02-25T16:52:47.173Z,1.70
2023-02-25T16:55:22.846Z,0.87
2023-02-25T16:58:14.674Z,3.00
2023-02-25T17:01:01.632Z,1.23
2023-02-25T17:03:46.380Z,1.60
2023-02-25T17:06:19.243Z,1.63
2023-02-25T17:08:49.680Z,1.50
2023-02-25T17:11:19.569Z,1.67
2023-02-25T17:13:51.312Z,1.30
2023-02-25T17:16:28.267Z,1.10
2023-02-25T17:19:04.043Z,1.37
2023-02-25T17:21:44.309Z,1.50
2023-02-25T17:24:23.251Z,2.00
2023-02-25T17:26:51.752Z,1.93
2023-02-25T17:29:19.363Z,1.20
2023-02-25T17:31:55.870Z,1.37
2023-02-25T17:34:31.568Z,1.90
2023-02-25T17:37:03.485Z,1.00
2023-02-25T17:39:31.509Z,1.10
2023-02-25T17:41:58.396Z,1.43
2023-02-25T17:44:40.741Z,2.10
2023-02-25T17:47:12.287Z,1.30
2023-02-25T17:49:39.561Z,1.67
2023-02-25T17:52:18.688Z,1.80
2023-02-25T17:55:01.597Z,1.43
2023-02-25T17:57:33.492Z,1.90
2023-02-25T18:00:26.378Z,2.17
2023-02-25T18:03:11.850Z,2.20
2023-02-25T18:05:59.410Z,1.47
2023-02-25T18:08:54.400Z,2.00
2023-02-25T18:11:39.939Z,1.77
2023-02-25T18:14:37.052Z,2.00
2023-02-25T18:17:34.385Z,2.10
2023-02-25T18:20:05.699Z,1.70
2023-02-25T18:22:48.150Z,1.90
2023-02-25T18:25:38.217Z,1.10
2023-02-25T18:28:12.579Z,1.50
2023-02-25T18:30:39.442Z,1.63
2023-02-25T18:33:06.541Z,1.50
2023-02-25T18:35:34.375Z,1.60
2023-02-25T18:38:02.652Z,1.93
2023-02-25T18:40:35.711Z,1.60
2023-02-25T18:43:03.831Z,1.60
2023-02-25T18:45:33.169Z,1.70
2023-02-25T18:48:00.837Z,1.40
2023-02-25T18:50:32.642Z,1.40
2023-02-25T18:53:00.574Z,1.70
2023-02-25T18:55:35.192Z,1.50
2023-02-25T18:58:02.796Z,1.90
2023-02-25T19:00:30.039Z,1.60
2023-02-25T19:03:00.896Z,1.70
2023-02-25T19:05:28.368Z,1.50
2023-02-25T19:07:56.182Z,2.57
2023-02-25T19:10:31.151Z,2.43
2023-02-25T19:13:05.848Z,2.00
2023-02-25T19:15:35.115Z,1.17
2023-02-25T19:18:01.969Z,1.80
2023-02-25T19:20:28.755Z,2.30
2023-02-25T19:22:55.513Z,2.33
2023-02-25T19:25:34.867Z,1.60
2023-02-25T19:28:02.832Z,1.13
2023-02-25T19:30:34.969Z,1.93
2023-02-25T19:33:04.954Z,2.60
2023-02-25T19:35:35.558Z,1.80
2023-02-25T19:38:03.608Z,2.00
2023-02-25T19:40:31.089Z,1.47
2023-02-25T19:42:58.936Z,3.00
2023-02-25T19:45:27.194Z,2.77
2023-02-25T19:47:55.117Z,2.07
2023-02-25T19:50:25.598Z,2.40
2023-02-25T19:52:54.611Z,2.20
2023-02-25T19:55:22.632Z,2.70
2023-02-25T19:57:50.498Z,2.53
2023-02-25T20:00:24.410Z,2.43
2023-02-25T20:02:53.688Z,2.70
2023-02-25T20:05:22.380Z,2.40
2023-02-25T20:07:49.466Z,1.70
2023-02-25T20:10:17.079Z,2.10
2023-02-25T20:12:46.094Z,2.03
2023-02-25T20:15:15.225Z,2.67
2023-02-25T20:17:44.410Z,2.40
2023-02-25T20:20:13.926Z,1.83
2023-02-25T20:22:41.590Z,2.40
2023-02-25T20:25:09.925Z,1.80
2023-02-25T20:27:43.099Z,2.20
2023-02-25T20:30:14.394Z,2.23
2023-02-25T20:32:44.285Z,3.60
2023-02-25T20:35:30.147Z,3.10
2023-02-25T20:38:17.986Z,2.80
2023-02-25T20:40:44.874Z,2.70
2023-02-25T20:43:12.098Z,3.30
2023-02-25T20:45:39.631Z,2.30
2023-02-25T20:48:06.932Z,2.70
2023-02-25T20:50:34.308Z,3.10
2023-02-25T20:53:01.298Z,2.47
2023-02-25T20:55:28.328Z,4.03
2023-02-25T20:57:55.168Z,4.23
2023-02-25T21:00:21.982Z,4.20
2023-02-25T21:02:48.862Z,4.23
2023-02-25T21:05:15.752Z,3.97
2023-02-25T21:07:42.582Z,3.27
2023-02-25T21:10:10.907Z,3.63
2023-02-25T21:12:38.333Z,4.27
2023-02-25T21:15:05.869Z,4.33
2023-02-25T21:17:35.689Z,3.80
2023-02-25T21:20:04.366Z,4.07
2023-02-25T21:22:31.198Z,4.10
2023-02-25T21:24:58.991Z,4.33
2023-02-25T21:27:26.191Z,5.50
2023-02-25T21:29:53.524Z,6.20
2023-02-25T21:32:20.468Z,6.53
2023-02-25T21:34:47.377Z,5.90
2023-02-25T21:37:14.157Z,7.37
2023-02-25T21:39:41.305Z,5.90
2023-02-25T21:42:08.714Z,7.90
2023-02-25T21:44:35.495Z,7.23
2023-02-25T21:47:02.330Z,5.70
2023-02-25T21:49:31.508Z,6.33
2023-02-25T21:51:58.486Z,6.97
2023-02-25T21:54:25.323Z,6.20
2023-02-25T21:56:52.114Z,4.77
2023-02-25T21:59:19.037Z,3.90
2023-02-25T22:01:45.938Z,5.03
2023-02-25T22:04:12.786Z,4.90
2023-02-25T22:06:39.665Z,3.93
2023-02-25T22:09:06.914Z,3.20
2023-02-25T22:11:36.866Z,2.77
2023-02-25T22:14:07.576Z,2.20
2023-02-25T22:16:35.677Z,2.20
2023-02-25T22:19:02.826Z,2.10
2023-02-25T22:21:33.161Z,2.30
2023-02-25T22:24:03.932Z,1.70
2023-02-25T22:26:35.001Z,2.00
2023-02-25T22:29:07.165Z,1.80
2023-02-25T22:31:35.043Z,1.70
2023-02-25T22:34:03.573Z,1.87
2023-02-25T22:36:30.490Z,3.60
2023-02-25T22:38:57.244Z,1.50
2023-02-25T22:41:27.935Z,1.67
2023-02-25T22:43:55.117Z,1.37
2023-02-25T22:46:31.698Z,2.00
2023-02-25T22:48:59.248Z,1.50
2023-02-25T22:51:31.083Z,1.47
2023-02-25T22:53:58.272Z,1.77
2023-02-25T22:56:25.959Z,1.87
2023-02-25T22:58:53.473Z,1.57
2023-02-25T23:01:22.344Z,1.53
2023-02-25T23:03:50.756Z,1.60
2023-02-25T23:06:20.686Z,1.57
2023-02-25T23:08:48.095Z,1.57
2023-02-25T23:11:24.308Z,1.40
2023-02-25T23:13:54.244Z,1.30
2023-02-25T23:16:25.423Z,0.97
2023-02-25T23:18:52.751Z,1.00
2023-02-25T23:21:21.045Z,1.60
2023-02-25T23:23:57.453Z,1.40
2023-02-25T23:26:29.926Z,1.43
2023-02-25T23:28:59.345Z,1.37
2023-02-25T23:31:33.995Z,1.67
2023-02-25T23:34:06.676Z,1.80
2023-02-25T23:36:33.444Z,1.40
2023-02-25T23:39:02.868Z,2.10
2023-02-25T23:41:30.047Z,1.90
2023-02-25T23:44:00.693Z,1.50
2023-02-25T23:46:30.887Z,1.83
2023-02-25T23:49:05.543Z,2.00
2023-02-25T23:51:33.692Z,2.07
2023-02-25T23:54:05.046Z,2.20
2023-02-25T23:56:33.525Z,2.50
2023-02-25T23:59:00.731Z,2.57
